Kahului, HI (96732)

6:02 AM HST on June 25, 2017 (GMT -1000)
Maunaleo | | Change Station
Active Advisory: Special Statement

Elev 358 ft 20.87 °N, 156.50 °W | Updated 8 seconds ago

Clear
Clear
73.5 °F
Feels Like 75 °F
N
5.0
Wind Variable Wind from WNW

Today
High -- | Low -- °F
--% Chance of Precip.
Yesterday
High -- | Low -- °F
Precip. -- in
Pressure 30.03 in
Visibility 10.0 miles
Clouds Few 4000 ft
Heat Index 75 °F
Dew Point 63 °F
Humidity 70%
Rainfall 0.00 in
Snow Depth Not available.
5:46 AM 7:10 PM
Waxing Crescent, 4% visible
METAR PHOG 251554Z 17005KT 10SM FEW040 19/17 A3001 RMK AO2 SLP169 T01940167
Pressure 30.03 in
Visibility 10.0 miles
Clouds Few 4000 ft
Heat Index 75 °F
Dew Point 63 °F
Humidity 70%
Rainfall 0.00 in
Snow Depth Not available.
5:46 AM 7:10 PM
Waxing Crescent, 4% visible
METAR PHOG 251554Z 17005KT 10SM FEW040 19/17 A3001 RMK AO2 SLP169 T01940167

Get Your Daily Forecast Email!

Thanks for signing up!

Be on the lookout for a verification email in your inbox.

You'll start receiving severe weather alerts in your inbox..

×

10-Day Weather Forecast

Almanac

Astronomy

Jun. 25, 2017 Rise Set
Actual Time
Civil Twilight
Nautical Twilight
Astronomical Twilight
Moon
Length of Visible Light
Length of Day
Tomorrow will be .
, % of the Moon is Illuminated

Today's Extremes

State Highs State Lows

Community

WunderPhotos

Category 6

Welcome to Category 6. This is the collective home for Weather Underground's featured writeups by Dr. Jeff Masters (right), Bob Henson (left), Chris Burt, and other regular contributors.

Nearby

Air Quality

  Air Quality AQ Index Pollutant
Not available.

Snow Depth

Station Depth Elevation

Earthquake Activity

City Distance Mag. Time & Date
Minimum magnitude displayed is 2.5.

Coastal Water Temperatures

Place Temperature

Stations

Nearby Weather Stations

Station Location Temp. Windchill Dew Point Humidity Wind Precip. Elev Updated Type
                   

Watches & Warnings

Special Statement
Issued: 6:36 AM HST Jun. 24, 2017 – National Weather Service

... Coastal flooding possible...

Coastal flooding associated with King tides will be a possibility
the next couple of days, especially along south facing shores,
where surf will be elevated. The greatest potential for coastal
flooding impacts will be during the mid- to late-afternoon hours
today, when highest tides are expected.

Impacts may include flooding of beach areas that are normally
dry, as well as inundation of typically vulnerable low-lying
roads, docks, boat ramps and other coastal infrastructure.

The potential for coastal flooding will decrease into next week
as the peak daily tides diminish.

Visit tidesandcurrents.NOAA.Gov for more specific information
about forecast tides and water levels in your area.